createdAt,value
2019-05-06T00:00:54.888Z,92.07
2019-05-06T00:01:44.110Z,92.24
2019-05-06T00:02:41.122Z,92.76
2019-05-06T00:03:41.106Z,92.13
2019-05-06T00:04:41.107Z,92.03
2019-05-06T00:05:41.095Z,92.13
2019-05-06T00:06:41.134Z,92.38
2019-05-06T00:07:41.079Z,91.93
2019-05-06T00:08:41.049Z,92.03
2019-05-06T00:09:41.041Z,92.03
2019-05-06T00:10:41.033Z,92.03
2019-05-06T00:11:41.040Z,92.76
2019-05-06T00:12:41.050Z,92.55
2019-05-06T00:13:41.012Z,92.24
2019-05-06T00:14:41.007Z,91.72
2019-05-06T00:15:40.971Z,91.72
2019-05-06T00:16:40.972Z,91.51
2019-05-06T00:17:40.954Z,91.72
2019-05-06T00:18:40.990Z,91.51
2019-05-06T00:19:40.944Z,90.89
2019-05-06T00:20:40.918Z,90.89
2019-05-06T00:21:40.922Z,90.99
2019-05-06T00:22:40.993Z,91.30
2019-05-06T00:23:40.900Z,91.41
2019-05-06T00:24:41.005Z,91.09
2019-05-06T00:25:40.938Z,90.89
2019-05-06T00:26:40.866Z,91.09
2019-05-06T00:27:40.851Z,91.30
2019-05-06T00:28:40.845Z,91.51
2019-05-06T00:29:40.864Z,91.66
2019-05-06T00:30:40.914Z,90.83
2019-05-06T00:31:40.809Z,90.93
2019-05-06T00:32:40.794Z,91.55
2019-05-06T00:33:40.787Z,91.66
2019-05-06T00:34:40.774Z,91.24
2019-05-06T00:35:40.766Z,91.66
2019-05-06T00:36:40.797Z,91.72
2019-05-06T00:37:40.735Z,91.66
2019-05-06T00:38:40.725Z,91.35
2019-05-06T00:39:40.720Z,91.45
2019-05-06T00:40:40.715Z,91.45
2019-05-06T00:41:40.692Z,91.97
2019-05-06T00:42:40.760Z,92.49
2019-05-06T00:43:40.680Z,92.28
2019-05-06T00:44:40.675Z,92.38
2019-05-06T00:45:40.655Z,92.32
2019-05-06T00:46:40.644Z,92.32
2019-05-06T00:47:40.660Z,92.74
2019-05-06T00:48:40.676Z,92.53
2019-05-06T00:49:40.604Z,92.74
2019-05-06T00:50:40.617Z,92.74
2019-05-06T00:51:40.623Z,92.63
2019-05-06T00:52:40.580Z,92.63
2019-05-06T00:53:40.572Z,93.04
2019-05-06T00:54:40.605Z,92.53
2019-05-06T00:55:40.541Z,93.15
2019-05-06T00:56:40.550Z,93.25
2019-05-06T00:57:40.516Z,92.63
2019-05-06T00:58:40.504Z,93.15
2019-05-06T00:59:40.502Z,93.04
2019-05-06T01:00:40.759Z,92.94
2019-05-06T01:01:40.483Z,93.25
2019-05-06T01:02:40.460Z,93.35
2019-05-06T01:03:40.454Z,93.56
2019-05-06T01:04:40.439Z,93.40
2019-05-06T01:05:40.475Z,93.60
2019-05-06T01:06:40.477Z,93.91
2019-05-06T01:07:40.408Z,93.71
2019-05-06T01:08:40.415Z,93.71
2019-05-06T01:09:40.396Z,93.71
2019-05-06T01:10:40.383Z,93.91
2019-05-06T01:11:40.382Z,93.33
2019-05-06T01:12:40.394Z,93.71
2019-05-06T01:13:40.343Z,93.81
2019-05-06T01:14:40.335Z,94.23
2019-05-06T01:15:40.325Z,94.02
2019-05-06T01:16:40.306Z,93.85
2019-05-06T01:17:40.311Z,94.06
2019-05-06T01:18:40.351Z,94.06
2019-05-06T01:19:40.280Z,93.96
2019-05-06T01:20:40.266Z,93.96
2019-05-06T01:21:40.259Z,94.06
2019-05-06T01:22:40.245Z,94.06
2019-05-06T01:23:40.238Z,94.37
2019-05-06T01:24:40.254Z,94.17
2019-05-06T01:25:40.267Z,94.17
2019-05-06T01:26:40.242Z,94.37
2019-05-06T01:27:40.190Z,94.17
2019-05-06T01:28:40.180Z,94.17
2019-05-06T01:29:40.173Z,94.79
2019-05-06T01:30:40.212Z,95.04
2019-05-06T01:31:43.210Z,95.04
2019-05-06T01:32:41.158Z,95.10
2019-05-06T01:33:40.139Z,95.25
2019-05-06T01:34:40.122Z,95.25
2019-05-06T01:35:40.102Z,95.77
2019-05-06T01:36:40.158Z,95.56
2019-05-06T01:37:40.082Z,95.67
2019-05-06T01:38:40.069Z,95.46
2019-05-06T01:39:40.064Z,95.56
2019-05-06T01:40:40.113Z,95.67
2019-05-06T01:41:40.052Z,95.61
2019-05-06T01:42:40.240Z,95.92
2019-05-06T01:43:40.017Z,95.81
2019-05-06T01:44:40.067Z,95.71
2019-05-06T01:45:39.999Z,95.61
2019-05-06T01:46:39.991Z,95.71
2019-05-06T01:47:39.982Z,95.81
2019-05-06T01:48:40.015Z,95.50
2019-05-06T01:49:39.983Z,94.78
2019-05-06T01:50:39.973Z,95.29
2019-05-06T01:51:39.977Z,94.98
2019-05-06T01:52:39.937Z,94.36
2019-05-06T01:53:39.927Z,94.84
2019-05-06T01:54:39.939Z,94.84
2019-05-06T01:55:39.911Z,94.32
2019-05-06T01:56:39.884Z,94.11
2019-05-06T01:57:39.870Z,94.53
2019-05-06T01:58:39.857Z,94.78
2019-05-06T01:59:39.849Z,95.04
2019-05-06T02:00:39.900Z,95.04
2019-05-06T02:01:53.495Z,95.77
2019-05-06T02:02:40.818Z,95.67
2019-05-06T02:03:39.831Z,95.77
2019-05-06T02:04:39.809Z,94.84
2019-05-06T02:05:39.799Z,95.04
2019-05-06T02:06:39.826Z,95.15
2019-05-06T02:07:39.770Z,95.36
2019-05-06T02:08:39.757Z,95.56
2019-05-06T02:09:39.741Z,95.77
2019-05-06T02:10:39.742Z,95.71
2019-05-06T02:11:39.719Z,95.15
2019-05-06T02:12:39.771Z,95.36
2019-05-06T02:13:39.709Z,95.29
2019-05-06T02:14:39.691Z,95.81
2019-05-06T02:15:39.681Z,95.81
2019-05-06T02:16:39.669Z,95.81
2019-05-06T02:17:39.654Z,95.29
2019-05-06T02:18:39.678Z,95.40
2019-05-06T02:19:39.641Z,95.81
2019-05-06T02:20:39.617Z,95.81
2019-05-06T02:21:39.625Z,95.09
2019-05-06T02:22:39.625Z,95.92
2019-05-06T02:23:39.591Z,95.71
2019-05-06T02:24:39.634Z,96.02
2019-05-06T02:25:39.571Z,96.12
2019-05-06T02:26:39.565Z,96.02
2019-05-06T02:27:39.550Z,96.27
2019-05-06T02:28:39.552Z,96.37
2019-05-06T02:29:39.521Z,96.54
2019-05-06T02:30:39.560Z,96.54
2019-05-06T02:31:39.518Z,96.69
2019-05-06T02:32:39.507Z,96.79
2019-05-06T02:33:39.484Z,96.64
2019-05-06T02:34:39.480Z,96.54
2019-05-06T02:35:39.460Z,96.75
2019-05-06T02:36:39.505Z,96.58
2019-05-06T02:37:39.447Z,96.58
2019-05-06T02:38:50.449Z,96.54
2019-05-06T02:39:43.599Z,96.69
2019-05-06T02:40:39.417Z,96.54
2019-05-06T02:41:39.400Z,96.37
2019-05-06T02:42:39.420Z,96.58
2019-05-06T02:43:39.376Z,96.69
2019-05-06T02:44:39.381Z,96.69
2019-05-06T02:45:39.381Z,97.00
2019-05-06T02:46:39.353Z,97.10
2019-05-06T02:47:39.336Z,97.00
2019-05-06T02:48:39.374Z,96.95
2019-05-06T02:49:39.310Z,97.31
2019-05-06T02:50:39.356Z,97.06
2019-05-06T02:51:39.286Z,97.16
2019-05-06T02:52:39.289Z,96.85
2019-05-06T02:53:39.271Z,96.89
2019-05-06T02:54:39.309Z,96.54
2019-05-06T02:55:39.246Z,96.85
2019-05-06T02:56:39.252Z,96.44
2019-05-06T02:57:39.230Z,96.95
2019-05-06T02:58:39.229Z,96.75
2019-05-06T02:59:39.216Z,96.79
2019-05-06T03:00:39.222Z,97.10
2019-05-06T03:01:39.213Z,96.64
2019-05-06T03:02:43.803Z,96.64
2019-05-06T03:03:43.439Z,96.48
2019-05-06T03:04:39.177Z,97.06
2019-05-06T03:05:39.215Z,96.64
2019-05-06T03:06:39.289Z,96.58
2019-05-06T03:07:39.124Z,96.48
2019-05-06T03:08:39.109Z,96.54
2019-05-06T03:09:39.113Z,96.69
2019-05-06T03:10:39.094Z,96.23
2019-05-06T03:11:39.088Z,95.81
2019-05-06T03:12:39.125Z,96.02
2019-05-06T03:13:39.069Z,95.34
2019-05-06T03:14:39.044Z,95.44
2019-05-06T03:15:39.049Z,95.44
2019-05-06T03:16:39.043Z,95.96
2019-05-06T03:17:39.014Z,95.86
2019-05-06T03:18:39.045Z,95.81
2019-05-06T03:19:39.005Z,95.75
2019-05-06T03:20:39.002Z,95.44
2019-05-06T03:21:38.993Z,95.19
2019-05-06T03:22:38.966Z,95.61
2019-05-06T03:23:38.944Z,95.29
2019-05-06T03:24:39.001Z,95.44
2019-05-06T03:25:38.947Z,95.44
2019-05-06T03:26:38.930Z,95.96
2019-05-06T03:27:38.907Z,95.96
2019-05-06T03:28:38.907Z,95.44
2019-05-06T03:29:38.905Z,95.34
2019-05-06T03:30:38.939Z,95.44
2019-05-06T03:31:39.163Z,95.75
2019-05-06T03:33:14.156Z,96.79
2019-05-06T03:33:59.816Z,96.89
2019-05-06T03:35:00.709Z,96.58
2019-05-06T03:35:52.253Z,96.37
2019-05-06T03:36:42.236Z,96.37
2019-05-06T03:37:39.836Z,96.37
2019-05-06T03:38:38.787Z,96.89
2019-05-06T03:39:38.787Z,96.33
2019-05-06T03:40:42.096Z,96.89
2019-05-06T03:41:39.806Z,96.75
2019-05-06T03:42:38.755Z,96.23
2019-05-06T03:43:38.754Z,96.23
2019-05-06T03:44:38.748Z,96.64
2019-05-06T03:45:38.809Z,96.17
2019-05-06T03:46:38.753Z,96.54
2019-05-06T03:47:38.737Z,96.75
2019-05-06T03:48:38.681Z,96.23
2019-05-06T03:49:38.672Z,96.58
2019-05-06T03:50:38.660Z,96.48
2019-05-06T03:51:38.683Z,96.64
2019-05-06T03:52:38.645Z,96.44
2019-05-06T03:53:38.694Z,96.75
2019-05-06T03:54:38.631Z,96.23
2019-05-06T03:55:38.628Z,96.54
2019-05-06T03:56:38.595Z,96.44
2019-05-06T03:57:38.588Z,95.71
2019-05-06T03:58:38.585Z,95.98
2019-05-06T03:59:38.664Z,95.81
2019-05-06T04:00:38.591Z,95.81
2019-05-06T04:01:38.583Z,95.77
2019-05-06T04:02:39.901Z,95.61
2019-05-06T04:03:46.846Z,95.56
2019-05-06T04:04:39.576Z,95.56
2019-05-06T04:05:38.528Z,95.46
2019-05-06T04:06:38.502Z,95.56
2019-05-06T04:07:38.486Z,95.56
2019-05-06T04:08:38.595Z,95.25
2019-05-06T04:09:38.459Z,95.04
2019-05-06T04:10:38.627Z,94.53
2019-05-06T04:11:38.458Z,94.42
2019-05-06T04:12:38.435Z,94.79
2019-05-06T04:13:38.420Z,94.68
2019-05-06T04:14:38.421Z,94.42
2019-05-06T04:15:38.392Z,93.75
2019-05-06T04:16:38.601Z,94.11
2019-05-06T04:17:38.367Z,94.01
2019-05-06T04:18:38.358Z,93.96
2019-05-06T04:19:38.429Z,94.37
2019-05-06T04:20:38.336Z,93.85
2019-05-06T04:21:38.334Z,94.17
2019-05-06T04:22:38.357Z,94.06
2019-05-06T04:23:38.302Z,93.90
2019-05-06T04:24:38.295Z,93.90
2019-05-06T04:25:38.297Z,94.21
2019-05-06T04:26:38.283Z,94.11
2019-05-06T04:27:38.267Z,94.01
2019-05-06T04:28:38.376Z,94.01
2019-05-06T04:29:38.241Z,93.80
2019-05-06T04:30:38.255Z,93.70
2019-05-06T04:31:38.298Z,93.70
2019-05-06T04:32:38.338Z,93.70
2019-05-06T04:33:38.213Z,94.11
2019-05-06T04:34:38.243Z,94.11
2019-05-06T04:35:38.228Z,93.80
2019-05-06T04:36:38.165Z,94.01
2019-05-06T04:37:38.155Z,94.21
2019-05-06T04:38:38.159Z,94.01
2019-05-06T04:39:38.131Z,94.11
2019-05-06T04:40:38.163Z,94.11
2019-05-06T04:41:38.128Z,94.11
2019-05-06T04:42:38.097Z,94.42
2019-05-06T04:43:38.152Z,94.01
2019-05-06T04:44:38.116Z,94.11
2019-05-06T04:45:38.108Z,94.73
2019-05-06T04:46:38.124Z,94.21
2019-05-06T04:47:38.051Z,94.21
2019-05-06T04:48:38.061Z,94.11
2019-05-06T04:49:38.035Z,93.38
2019-05-06T04:50:38.023Z,93.49
2019-05-06T04:51:38.029Z,94.01
2019-05-06T04:52:38.044Z,93.49
2019-05-06T04:53:38.035Z,93.49
2019-05-06T04:54:38.045Z,93.70
2019-05-06T04:55:37.969Z,93.49
2019-05-06T04:56:37.955Z,93.49
2019-05-06T04:57:37.946Z,93.90
2019-05-06T04:58:37.993Z,94.01
2019-05-06T04:59:37.919Z,93.38
2019-05-06T05:00:38.015Z,93.90
2019-05-06T05:01:37.901Z,94.32
2019-05-06T05:02:37.888Z,94.01
2019-05-06T05:03:37.904Z,93.80
2019-05-06T05:04:37.901Z,94.01
2019-05-06T05:05:37.850Z,94.11
2019-05-06T05:06:37.846Z,94.11
2019-05-06T05:07:37.848Z,94.01
2019-05-06T05:08:37.840Z,93.80
2019-05-06T05:09:37.813Z,93.70
2019-05-06T05:10:37.872Z,93.70
2019-05-06T05:11:37.791Z,92.97
2019-05-06T05:12:37.782Z,93.28
2019-05-06T05:13:37.767Z,93.33
2019-05-06T05:14:37.784Z,93.44
2019-05-06T05:15:37.745Z,93.02
2019-05-06T05:16:37.785Z,93.23
2019-05-06T05:17:37.722Z,93.13
2019-05-06T05:18:37.713Z,93.13
2019-05-06T05:19:37.704Z,92.72
2019-05-06T05:20:44.113Z,93.23
2019-05-06T05:21:38.789Z,92.82
2019-05-06T05:22:37.671Z,93.02
2019-05-06T05:23:37.657Z,92.88
2019-05-06T05:24:37.645Z,93.08
2019-05-06T05:25:37.639Z,92.88
2019-05-06T05:26:37.628Z,93.08
2019-05-06T05:27:37.666Z,92.88
2019-05-06T05:28:37.611Z,92.84
2019-05-06T05:29:37.609Z,92.74
2019-05-06T05:30:37.611Z,92.22
2019-05-06T05:31:37.572Z,92.74
2019-05-06T05:32:37.564Z,91.80
2019-05-06T05:33:37.588Z,90.97
2019-05-06T05:34:40.606Z,90.41
2019-05-06T05:35:37.530Z,90.20
2019-05-06T05:36:37.520Z,90.41
2019-05-06T05:37:37.509Z,90.58
2019-05-06T05:38:37.492Z,90.47
2019-05-06T05:39:37.534Z,90.58
2019-05-06T05:40:37.512Z,90.58
2019-05-06T05:41:37.462Z,90.47
2019-05-06T05:42:37.456Z,90.47
2019-05-06T05:43:39.517Z,90.33
2019-05-06T05:44:37.437Z,90.12
2019-05-06T05:45:37.458Z,89.50
2019-05-06T05:46:37.411Z,89.19
2019-05-06T05:47:37.429Z,88.98
2019-05-06T05:48:37.387Z,88.57
2019-05-06T05:49:37.395Z,87.95
2019-05-06T05:50:37.377Z,87.33
2019-05-06T05:51:37.387Z,87.85
2019-05-06T05:52:37.341Z,87.70
2019-05-06T05:53:37.379Z,88.64
2019-05-06T05:54:37.319Z,88.53
2019-05-06T05:55:58.316Z,87.56
2019-05-06T05:56:37.304Z,87.56
2019-05-06T05:57:37.498Z,88.59
2019-05-06T05:58:37.293Z,87.66
2019-05-06T05:59:37.271Z,87.15
2019-05-06T06:00:37.255Z,87.25
2019-05-06T06:01:37.243Z,87.10
2019-05-06T06:02:37.243Z,87.76
2019-05-06T06:03:37.280Z,87.00
2019-05-06T06:04:50.730Z,87.00
2019-05-06T06:05:38.203Z,86.28
2019-05-06T06:06:37.189Z,86.28
2019-05-06T06:07:37.182Z,86.07
2019-05-06T06:08:37.172Z,85.10
2019-05-06T06:09:37.196Z,85.55
2019-05-06T06:10:37.156Z,86.34
2019-05-06T06:11:37.138Z,85.83
2019-05-06T06:12:37.123Z,86.34
2019-05-06T06:13:37.116Z,86.24
2019-05-06T06:14:37.105Z,85.58
2019-05-06T06:15:37.131Z,84.96
2019-05-06T06:16:37.093Z,83.83
2019-05-06T06:17:37.072Z,83.62
2019-05-06T06:18:37.054Z,84.03
2019-05-06T06:19:37.053Z,84.13
2019-05-06T06:20:37.040Z,83.78
2019-05-06T06:21:37.076Z,83.58
2019-05-06T06:22:37.050Z,83.17
2019-05-06T06:23:37.004Z,83.37
2019-05-06T06:24:37.006Z,83.17
2019-05-06T06:25:37.006Z,81.51
2019-05-06T06:26:36.969Z,81.82
2019-05-06T06:27:37.011Z,83.58
2019-05-06T06:28:36.978Z,83.37
2019-05-06T06:29:36.969Z,82.14
2019-05-06T06:30:36.931Z,82.34
2019-05-06T06:31:36.931Z,82.65
2019-05-06T06:32:36.962Z,82.34
2019-05-06T06:33:36.971Z,79.97
2019-05-06T06:34:36.899Z,80.55
2019-05-06T06:35:36.903Z,81.68
2019-05-06T06:36:36.888Z,81.79
2019-05-06T06:37:36.852Z,82.20
2019-05-06T06:38:36.844Z,83.03
2019-05-06T06:39:36.880Z,83.54
2019-05-06T06:40:36.821Z,81.68
2019-05-06T06:41:36.830Z,79.93
2019-05-06T06:42:36.798Z,79.93
2019-05-06T06:43:36.790Z,80.14
2019-05-06T06:44:36.781Z,80.55
2019-05-06T06:45:36.814Z,79.93
2019-05-06T06:46:36.755Z,79.90
2019-05-06T06:47:36.774Z,80.27
2019-05-06T06:48:36.737Z,77.59
2019-05-06T06:49:36.731Z,77.28
2019-05-06T06:50:36.710Z,78.31
2019-05-06T06:51:36.764Z,78.41
2019-05-06T06:52:36.694Z,78.86
2019-05-06T06:53:36.703Z,79.06
2019-05-06T06:54:36.666Z,76.39
2019-05-06T06:55:36.662Z,76.07
2019-05-06T06:56:36.649Z,77.21
2019-05-06T06:57:36.689Z,78.24
2019-05-06T06:58:36.624Z,74.95
2019-05-06T06:59:36.638Z,75.05
2019-05-06T07:00:36.605Z,76.39
2019-05-06T07:01:36.594Z,75.35
2019-05-06T07:02:36.583Z,74.22
2019-05-06T07:03:36.619Z,74.19
2019-05-06T07:04:36.567Z,74.50
2019-05-06T07:05:36.566Z,73.47
2019-05-06T07:06:36.570Z,74.70
2019-05-06T07:07:43.997Z,76.01
2019-05-06T07:08:37.949Z,74.05
2019-05-06T07:09:36.506Z,73.74
2019-05-06T07:10:36.492Z,73.13
2019-05-06T07:11:36.521Z,72.92
2019-05-06T07:12:36.476Z,71.48
2019-05-06T07:13:36.462Z,72.72
2019-05-06T07:14:36.506Z,73.09
2019-05-06T07:15:36.452Z,72.27
2019-05-06T07:16:36.429Z,71.04
2019-05-06T07:17:36.424Z,70.94
2019-05-06T07:18:36.437Z,70.62
2019-05-06T07:19:36.398Z,71.75
2019-05-06T07:20:36.433Z,69.80
2019-05-06T07:21:36.955Z,70.94
2019-05-06T07:22:36.367Z,71.96
2019-05-06T07:23:36.352Z,72.68
2019-05-06T07:24:36.361Z,71.14
2019-05-06T07:25:36.342Z,70.21
2019-05-06T07:26:36.384Z,69.39
2019-05-06T07:27:36.314Z,71.14
2019-05-06T07:28:36.308Z,69.53
2019-05-06T07:29:36.289Z,69.22
2019-05-06T07:30:36.272Z,71.66
2019-05-06T07:31:36.275Z,70.42
2019-05-06T07:32:36.310Z,69.42
2019-05-06T07:33:36.238Z,70.66
2019-05-06T07:34:36.233Z,72.89
2019-05-06T07:35:40.503Z,70.11
2019-05-06T07:36:36.206Z,70.45
2019-05-06T07:37:36.195Z,71.66
2019-05-06T07:38:36.244Z,70.62
2019-05-06T07:39:36.175Z,70.42
2019-05-06T07:40:36.169Z,69.39
2019-05-06T07:41:36.435Z,70.79
2019-05-06T07:42:36.140Z,69.70
2019-05-06T07:43:36.135Z,69.39
2019-05-06T07:44:36.206Z,69.39
2019-05-06T07:45:36.112Z,70.01
2019-05-06T07:46:36.098Z,68.57
2019-05-06T07:47:36.099Z,69.70
2019-05-06T07:48:36.083Z,71.34
2019-05-06T07:49:36.076Z,70.66
2019-05-06T07:50:36.109Z,71.34
2019-05-06T07:51:36.043Z,70.73
2019-05-06T07:52:36.043Z,70.62
2019-05-06T07:53:36.019Z,69.60
2019-05-06T07:54:36.037Z,69.70
2019-05-06T07:55:36.001Z,70.32
2019-05-06T07:56:36.042Z,68.88
2019-05-06T07:57:35.981Z,69.53
2019-05-06T07:58:35.978Z,69.63
2019-05-06T07:59:35.956Z,70.45
2019-05-06T08:00:35.973Z,70.97
2019-05-06T08:01:35.944Z,68.57
2019-05-06T08:02:35.975Z,69.01
2019-05-06T08:03:35.910Z,69.42
2019-05-06T08:04:35.904Z,68.70
2019-05-06T08:05:35.896Z,69.12
2019-05-06T08:06:35.905Z,68.08
2019-05-06T08:07:35.870Z,67.98
2019-05-06T08:08:35.889Z,67.57
2019-05-06T08:09:35.848Z,70.25
2019-05-06T08:10:35.843Z,70.52
2019-05-06T08:11:35.825Z,69.18
2019-05-06T08:12:35.832Z,69.01
2019-05-06T08:13:35.803Z,69.49
2019-05-06T08:14:35.853Z,69.42
2019-05-06T08:15:35.782Z,68.29
2019-05-06T08:16:35.767Z,68.80
2019-05-06T08:17:35.761Z,68.70
2019-05-06T08:18:35.750Z,69.09
2019-05-06T08:19:35.747Z,68.91
2019-05-06T08:20:35.787Z,67.75
2019-05-06T08:21:35.720Z,67.78
2019-05-06T08:22:35.707Z,67.78
2019-05-06T08:23:35.693Z,68.98
2019-05-06T08:24:35.681Z,69.32
2019-05-06T08:25:35.672Z,69.53
2019-05-06T08:26:35.721Z,68.50
2019-05-06T08:27:35.649Z,69.42
2019-05-06T08:28:40.608Z,70.42
2019-05-06T08:29:36.634Z,68.50
2019-05-06T08:30:35.716Z,70.25
2019-05-06T08:31:35.606Z,69.42
2019-05-06T08:32:35.684Z,68.53
2019-05-06T08:33:35.585Z,69.15
2019-05-06T08:34:35.590Z,70.48
2019-05-06T08:35:35.574Z,69.79
2019-05-06T08:36:35.553Z,69.66
2019-05-06T08:37:35.539Z,70.62
2019-05-06T08:38:35.578Z,69.56
2019-05-06T08:39:35.539Z,71.44
2019-05-06T08:40:35.508Z,71.65
2019-05-06T08:41:35.499Z,72.78
2019-05-06T08:42:35.484Z,72.99
2019-05-06T08:43:35.475Z,73.50
2019-05-06T08:44:35.491Z,73.19
2019-05-06T08:45:35.451Z,74.50
2019-05-06T08:46:35.460Z,74.50
2019-05-06T08:47:35.460Z,74.70
2019-05-06T08:48:35.428Z,74.87
2019-05-06T08:49:35.423Z,75.22
2019-05-06T08:50:35.452Z,74.67
2019-05-06T08:51:35.390Z,74.05
2019-05-06T08:52:35.375Z,74.29
2019-05-06T08:53:35.368Z,74.77
2019-05-06T08:54:35.369Z,74.87
2019-05-06T08:55:35.338Z,74.98
2019-05-06T08:56:35.371Z,75.59
2019-05-06T08:57:35.319Z,74.77
2019-05-06T08:58:35.315Z,74.46
2019-05-06T08:59:35.299Z,72.92
2019-05-06T09:00:35.311Z,72.75
2019-05-06T09:01:35.276Z,73.68
2019-05-06T09:02:35.295Z,72.61
2019-05-06T09:03:35.263Z,72.54
2019-05-06T09:04:35.265Z,72.81
2019-05-06T09:05:35.231Z,71.96
2019-05-06T09:06:35.254Z,70.86
2019-05-06T09:07:35.233Z,71.37
2019-05-06T09:08:35.251Z,71.45
2019-05-06T09:09:35.189Z,71.83
2019-05-06T09:10:35.180Z,71.62
2019-05-06T09:11:35.165Z,69.05
2019-05-06T09:12:35.171Z,67.41
2019-05-06T09:13:35.152Z,68.43
2019-05-06T09:14:35.178Z,68.54
2019-05-06T09:15:35.127Z,66.17
2019-05-06T09:16:35.120Z,66.93
2019-05-06T09:17:35.105Z,65.17
2019-05-06T09:18:35.114Z,66.72
2019-05-06T09:19:35.091Z,67.95
2019-05-06T09:20:35.114Z,66.31
2019-05-06T09:21:35.073Z,66.07
2019-05-06T09:22:35.052Z,67.51
2019-05-06T09:23:35.041Z,66.69
2019-05-06T09:24:35.097Z,68.10
2019-05-06T09:25:35.022Z,69.40
2019-05-06T09:26:35.074Z,67.14
2019-05-06T09:27:35.024Z,67.32
2019-05-06T09:28:34.982Z,68.00
2019-05-06T09:29:34.979Z,68.72
2019-05-06T09:30:34.996Z,65.30
2019-05-06T09:31:34.951Z,64.48
2019-05-06T09:32:35.980Z,63.35
2019-05-06T09:33:34.930Z,63.56
2019-05-06T09:34:34.927Z,63.32
2019-05-06T09:35:34.922Z,62.51
2019-05-06T09:36:44.201Z,61.89
2019-05-06T09:37:35.934Z,61.45
2019-05-06T09:38:34.876Z,61.86
2019-05-06T09:39:34.861Z,62.68
2019-05-06T09:40:34.854Z,63.26
2019-05-06T09:41:34.893Z,63.44
2019-05-06T09:42:34.828Z,64.84
2019-05-06T09:43:34.865Z,63.62
2019-05-06T09:44:34.814Z,61.41
2019-05-06T09:45:34.794Z,62.95
2019-05-06T09:46:34.784Z,59.75
2019-05-06T09:47:34.793Z,59.85
2019-05-06T09:48:34.763Z,61.38
2019-05-06T09:49:34.799Z,63.43
2019-05-06T09:50:34.739Z,60.97
2019-05-06T09:51:34.725Z,61.25
2019-05-06T09:52:34.717Z,60.64
2019-05-06T09:53:34.759Z,60.53
2019-05-06T09:54:34.699Z,60.23
2019-05-06T09:55:34.729Z,61.35
2019-05-06T09:56:34.679Z,60.05
2019-05-06T09:57:34.664Z,59.92
2019-05-06T09:58:34.667Z,61.38
2019-05-06T09:59:34.641Z,61.18
2019-05-06T10:00:34.626Z,60.53
2019-05-06T10:01:34.697Z,59.34
2019-05-06T10:02:34.624Z,59.23
2019-05-06T10:03:34.603Z,59.64
2019-05-06T10:04:34.585Z,58.83
2019-05-06T10:05:34.581Z,60.08
2019-05-06T10:06:34.566Z,59.80
2019-05-06T10:07:34.605Z,61.34
2019-05-06T10:08:34.541Z,60.83
2019-05-06T10:09:34.535Z,62.16
2019-05-06T10:10:34.524Z,62.13
2019-05-06T10:11:34.515Z,61.65
2019-05-06T10:12:34.505Z,63.69
2019-05-06T10:13:34.711Z,63.79
2019-05-06T10:14:34.475Z,65.12
2019-05-06T10:15:34.477Z,64.20
2019-05-06T10:16:34.465Z,64.10
2019-05-06T10:17:34.447Z,63.41
2019-05-06T10:18:34.436Z,63.21
2019-05-06T10:19:34.495Z,61.85
2019-05-06T10:20:34.422Z,61.82
2019-05-06T10:21:34.411Z,63.15
2019-05-06T10:22:34.392Z,63.35
2019-05-06T10:23:34.381Z,63.12
2019-05-06T10:24:34.374Z,63.02
2019-05-06T10:25:34.433Z,63.09
2019-05-06T10:26:34.348Z,60.44
2019-05-06T10:27:34.340Z,62.07
2019-05-06T10:28:34.327Z,62.88
2019-05-06T10:29:34.316Z,60.46
2019-05-06T10:30:34.317Z,62.27
2019-05-06T10:31:34.364Z,59.41
2019-05-06T10:32:34.318Z,61.25
2019-05-06T10:33:34.277Z,61.22
2019-05-06T10:34:34.260Z,61.40
2019-05-06T10:35:34.253Z,61.91
2019-05-06T10:36:34.238Z,61.71
2019-05-06T10:37:34.281Z,62.08
2019-05-06T10:38:34.216Z,57.90
2019-05-06T10:39:34.232Z,59.16
2019-05-06T10:40:34.245Z,59.80
2019-05-06T10:41:34.190Z,60.10
2019-05-06T10:42:34.180Z,59.69
2019-05-06T10:43:34.190Z,60.71
2019-05-06T10:44:34.150Z,61.22
2019-05-06T10:45:34.150Z,59.82
2019-05-06T10:46:34.177Z,58.60
2019-05-06T10:47:34.119Z,59.55
2019-05-06T10:48:34.115Z,61.05
2019-05-06T10:49:34.142Z,59.72
2019-05-06T10:50:34.085Z,60.13
2019-05-06T10:51:34.076Z,59.72
2019-05-06T10:52:34.061Z,59.62
2019-05-06T10:53:34.053Z,59.23
2019-05-06T10:54:34.059Z,61.28
2019-05-06T10:55:34.093Z,61.79
2019-05-06T10:56:49.490Z,59.95
2019-05-06T10:57:35.006Z,59.57
2019-05-06T10:58:34.001Z,62.23
2019-05-06T10:59:33.985Z,60.57
2019-05-06T11:00:34.002Z,61.15
2019-05-06T11:01:34.009Z,59.03
2019-05-06T11:02:33.960Z,59.41
2019-05-06T11:03:33.952Z,57.88
2019-05-06T11:04:33.934Z,58.19
2019-05-06T11:05:33.923Z,57.81
2019-05-06T11:06:33.924Z,58.01
2019-05-06T11:07:35.413Z,59.44
2019-05-06T11:08:33.887Z,59.75
2019-05-06T11:09:33.910Z,60.97
2019-05-06T11:10:40.855Z,59.95
2019-05-06T11:11:38.557Z,59.85
2019-05-06T11:12:33.858Z,58.52
2019-05-06T11:13:33.940Z,57.84
2019-05-06T11:14:33.829Z,59.47
2019-05-06T11:15:33.824Z,60.11
2019-05-06T11:16:33.813Z,60.62
2019-05-06T11:17:33.794Z,61.24
2019-05-06T11:18:33.778Z,63.31
2019-05-06T11:19:33.825Z,61.36
2019-05-06T11:20:33.763Z,62.32
2019-05-06T11:21:33.758Z,61.43
2019-05-06T11:22:33.740Z,63.24
2019-05-06T11:23:33.988Z,64.26
2019-05-06T11:24:33.713Z,64.87
2019-05-06T11:25:33.785Z,62.52
2019-05-06T11:26:33.696Z,63.57
2019-05-06T11:27:37.535Z,63.88
2019-05-06T11:28:35.366Z,62.45
2019-05-06T11:29:36.655Z,61.32
2019-05-06T11:30:33.652Z,61.76
2019-05-06T11:31:33.769Z,61.63
2019-05-06T11:32:33.657Z,61.29
2019-05-06T11:33:33.613Z,60.71
2019-05-06T11:34:33.602Z,61.73
2019-05-06T11:35:33.590Z,61.80
2019-05-06T11:36:33.615Z,61.19
2019-05-06T11:37:45.927Z,61.60
2019-05-06T11:38:34.562Z,61.52
2019-05-06T11:39:33.549Z,61.93
2019-05-06T11:40:33.537Z,63.34
2019-05-06T11:41:33.540Z,61.70
2019-05-06T11:42:35.931Z,61.50
2019-05-06T11:43:33.559Z,61.91
2019-05-06T11:44:33.513Z,61.26
2019-05-06T11:45:33.487Z,60.68
2019-05-06T11:46:33.477Z,61.11
2019-05-06T11:47:33.470Z,61.80
2019-05-06T11:48:33.449Z,62.65
2019-05-06T11:49:33.478Z,61.66
2019-05-06T11:50:33.633Z,60.84
2019-05-06T11:51:33.415Z,62.48
2019-05-06T11:52:34.670Z,61.86
2019-05-06T11:53:33.401Z,63.09
2019-05-06T11:54:33.835Z,63.29
2019-05-06T11:55:38.644Z,61.55
2019-05-06T11:56:47.710Z,61.32
2019-05-06T11:57:34.365Z,61.93
2019-05-06T11:58:33.342Z,60.19
2019-05-06T11:59:33.326Z,60.30
2019-05-06T12:00:35.873Z,59.89
2019-05-06T12:01:33.363Z,59.66
2019-05-06T12:02:33.319Z,60.65
2019-05-06T12:03:33.279Z,59.83
2019-05-06T12:04:33.306Z,60.44
2019-05-06T12:05:33.294Z,59.80
2019-05-06T12:06:33.299Z,60.42
2019-05-06T12:07:33.431Z,60.49
2019-05-06T12:08:33.231Z,59.06
2019-05-06T12:09:33.528Z,59.30
2019-05-06T12:10:33.230Z,58.07
2019-05-06T12:11:33.192Z,59.91
2019-05-06T12:12:33.195Z,59.83
2019-05-06T12:13:33.832Z,60.44
2019-05-06T12:14:33.176Z,60.96
2019-05-06T12:15:33.146Z,59.32
2019-05-06T12:16:33.674Z,57.58
2019-05-06T12:17:33.128Z,57.99
2019-05-06T12:18:33.119Z,59.01
2019-05-06T12:19:33.136Z,59.53
2019-05-06T12:20:33.098Z,59.22
2019-05-06T12:21:33.193Z,59.22
2019-05-06T12:22:33.067Z,60.75
2019-05-06T12:23:35.398Z,61.95
2019-05-06T12:24:33.046Z,62.16
2019-05-06T12:25:33.079Z,61.13
2019-05-06T12:26:33.044Z,59.19
2019-05-06T12:27:33.015Z,57.04
2019-05-06T12:28:33.002Z,57.35
2019-05-06T12:29:33.003Z,57.45
2019-05-06T12:30:33.032Z,57.89
2019-05-06T12:31:33.084Z,58.40
2019-05-06T12:32:33.263Z,58.70
2019-05-06T12:33:33.186Z,60.14
2019-05-06T12:34:32.990Z,60.65
2019-05-06T12:35:32.947Z,61.16
2019-05-06T12:36:32.911Z,62.70
2019-05-06T12:37:32.937Z,59.66
2019-05-06T12:38:32.921Z,59.96
2019-05-06T12:39:33.195Z,60.91
2019-05-06T12:40:32.878Z,59.89
2019-05-06T12:41:33.527Z,62.42
2019-05-06T12:42:33.243Z,59.99
2019-05-06T12:43:33.101Z,60.60
2019-05-06T12:44:32.831Z,61.45
2019-05-06T12:45:33.100Z,62.68
2019-05-06T12:46:33.253Z,61.58
2019-05-06T12:47:33.080Z,61.96
2019-05-06T12:48:33.255Z,61.25
2019-05-06T12:49:32.843Z,61.76
2019-05-06T12:50:33.256Z,63.29
2019-05-06T12:51:32.816Z,61.27
2019-05-06T12:52:32.771Z,62.17